Time;durP1;ratioP1;P1;durP2;ratioP2;P2;SDS_P1;SDS_P2;PMS_P1;PMS_P2;Temp;Humidity;BMP_temperature;BMP_pressure;BME280_temperature;BME280_humidity;BME280_pressure;Samples;Min_cycle;Max_cycle;Signal;HPM_P1;HPM_P2
2022/11/23 00:01:29;;;;;;;0.80;0.80;;;6.50;99.90;;;;;;5009992;28;20081;-81
2022/11/23 00:03:57;;;;;;;1.00;1.00;;;7.00;99.90;;;;;;4983142;28;20045;-80
2022/11/23 00:06:24;;;;;;;0.70;0.70;;;6.50;99.90;;;;;;5017234;28;20045;-82
2022/11/23 00:08:50;;;;;;;0.98;0.98;;;6.50;99.90;;;;;;5001301;28;20072;-82
2022/11/23 00:11:17;;;;;;;1.00;1.00;;;6.70;99.90;;;;;;5017148;28;20455;-83
2022/11/23 00:13:46;;;;;;;0.65;0.65;;;6.50;99.90;;;;;;4996066;28;20175;-83
2022/11/23 00:16:15;;;;;;;0.70;0.70;;;6.50;99.90;;;;;;5004774;28;20104;-82
2022/11/23 00:18:42;;;;;;;0.50;0.50;;;6.50;99.90;;;;;;5001667;28;20052;-83
2022/11/23 00:21:10;;;;;;;0.60;0.60;;;6.50;99.90;;;;;;5005929;28;20033;-83
2022/11/23 00:23:44;;;;;;;0.65;0.65;;;6.50;99.90;;;;;;4983523;28;20041;-81
2022/11/23 00:26:19;;;;;;;0.47;0.47;;;6.50;99.90;;;;;;5020136;28;20087;-82
2022/11/23 00:28:45;;;;;;;;;;;6.60;99.90;;;;;;5004343;28;20041;-83
2022/11/23 00:31:15;;;;;;;0.45;0.45;;;6.60;99.90;;;;;;5001668;28;19987;-83
2022/11/23 00:33:42;;;;;;;0.40;0.40;;;6.60;99.90;;;;;;5000068;28;20387;-83
2022/11/23 00:36:13;;;;;;;0.90;0.90;;;6.60;99.90;;;;;;4981691;28;20049;-82
2022/11/23 00:38:40;;;;;;;0.55;0.55;;;6.70;99.90;;;;;;5012051;28;20057;-82
2022/11/23 00:41:09;;;;;;;0.70;0.70;;;6.60;99.90;;;;;;4982127;28;20033;-82
2022/11/23 00:43:36;;;;;;;0.60;0.60;;;6.60;99.90;;;;;;5016709;28;20037;-82
2022/11/23 00:46:13;;;;;;;0.52;0.52;;;6.60;99.90;;;;;;4980552;28;20120;-83
2022/11/23 00:48:39;;;;;;;0.50;0.50;;;6.60;99.90;;;;;;4995320;28;20056;-82
2022/11/23 00:51:07;;;;;;;0.70;0.70;;;6.60;99.90;;;;;;4996373;28;20787;-83
2022/11/23 00:53:35;;;;;;;0.50;0.50;;;7.00;99.90;;;;;;4994814;28;20064;-82
2022/11/23 00:56:04;;;;;;;0.50;0.50;;;6.60;99.90;;;;;;5016120;28;20091;-83
2022/11/23 00:58:31;;;;;;;0.50;0.50;;;6.60;99.90;;;;;;4997041;28;20076;-81
2022/11/23 01:01:12;;;;;;;0.40;0.40;;;6.70;99.90;;;;;;4994426;28;20122;-82
2022/11/23 01:03:41;;;;;;;0.50;0.50;;;6.70;99.90;;;;;;4994908;28;20268;-82
2022/11/23 01:06:11;;;;;;;0.40;0.40;;;6.70;99.90;;;;;;5000467;28;20053;-82
2022/11/23 01:08:38;;;;;;;0.43;0.43;;;6.70;99.90;;;;;;4991047;28;20084;-80
2022/11/23 01:11:10;;;;;;;0.82;0.82;;;6.70;99.90;;;;;;5024153;28;20042;-81
2022/11/23 01:13:37;;;;;;;0.47;0.47;;;6.70;99.90;;;;;;5001066;28;20049;-81
2022/11/23 01:16:03;;;;;;;0.43;0.43;;;6.70;99.90;;;;;;4997943;28;20072;-82
2022/11/23 01:18:31;;;;;;;0.60;0.60;;;6.70;99.90;;;;;;5026068;28;20059;-82
2022/11/23 01:20:56;;;;;;;0.50;0.50;;;6.70;99.90;;;;;;4997334;28;20046;-81
2022/11/23 01:23:29;;;;;;;0.52;0.52;;;6.80;99.90;;;;;;4975390;28;20041;-82
2022/11/23 01:25:56;;;;;;;0.60;0.60;;;6.70;99.90;;;;;;4995207;28;20045;-82
2022/11/23 01:28:22;;;;;;;0.60;0.60;;;6.80;99.90;;;;;;4995194;28;20136;-82
2022/11/23 01:30:47;;;;;;;0.50;0.50;;;6.80;99.90;;;;;;5015617;28;20125;-82
2022/11/23 01:33:13;;;;;;;0.40;0.40;;;6.80;99.90;;;;;;4996600;28;20056;-83
2022/11/23 01:35:39;;;;;;;0.50;0.50;;;6.80;99.90;;;;;;5000643;28;20063;-83
2022/11/23 01:38:05;;;;;;;0.60;0.60;;;6.80;99.90;;;;;;4996034;28;20411;-84
2022/11/23 01:40:40;;;;;;;0.65;0.65;;;6.80;99.90;;;;;;4981402;28;20045;-83
2022/11/23 01:43:09;;;;;;;0.60;0.60;;;6.80;99.90;;;;;;4993527;28;20045;-84
2022/11/23 01:45:39;;;;;;;1.25;1.25;;;6.80;99.90;;;;;;4982289;28;20041;-84
2022/11/23 01:48:32;;;;;;;0.50;0.50;;;6.80;99.90;;;;;;5017307;28;20049;-83
2022/11/23 01:51:01;;;;;;;0.50;0.50;;;6.90;99.90;;;;;;5014938;28;21790;-82
2022/11/23 01:53:28;;;;;;;0.50;0.50;;;6.90;99.90;;;;;;5010691;28;20064;-83
2022/11/23 01:55:58;;;;;;;0.80;0.80;;;7.80;99.90;;;;;;4996482;28;20124;-82
2022/11/23 01:58:26;;;;;;;0.50;0.50;;;6.90;99.90;;;;;;4996295;28;20106;-82
2022/11/23 02:00:52;;;;;;;0.88;0.88;;;7.30;99.90;;;;;;5012509;28;20854;-82
2022/11/23 02:03:19;;;;;;;0.52;0.52;;;7.00;99.90;;;;;;4981003;28;20049;-83
2022/11/23 02:05:58;;;;;;;0.60;0.60;;;7.00;99.90;;;;;;5003269;28;20041;-82
2022/11/23 02:08:24;;;;;;;0.60;0.60;;;7.00;99.90;;;;;;4999568;28;20060;-83
2022/11/23 02:10:57;;;;;;;0.30;0.30;;;7.00;99.90;;;;;;5018020;28;20047;-83
2022/11/23 02:13:24;;;;;;;3.40;1.25;;;7.10;99.90;;;;;;5002989;28;20499;-82
2022/11/23 02:15:52;;;;;;;0.40;0.40;;;7.10;99.90;;;;;;5026381;28;20053;-82
2022/11/23 02:18:25;;;;;;;0.50;0.50;;;7.20;99.90;;;;;;5009467;28;20053;-83
2022/11/23 02:20:51;;;;;;;0.88;0.88;;;7.20;99.90;;;;;;4996015;28;20494;-84
2022/11/23 02:23:50;;;;;;;0.63;0.63;;;7.20;99.90;;;;;;5028250;28;20065;-82
2022/11/23 02:26:26;;;;;;;1.13;1.13;;;7.20;99.90;;;;;;5005194;28;20053;-83
2022/11/23 02:29:14;;;;;;;0.60;0.60;;;7.50;99.90;;;;;;5003167;28;20517;-83
2022/11/23 02:31:40;;;;;;;0.40;0.40;;;7.20;99.90;;;;;;5017715;28;20115;-82
2022/11/23 02:34:06;;;;;;;0.60;0.60;;;7.20;99.90;;;;;;5002557;28;20045;-82
2022/11/23 02:36:50;;;;;;;0.45;0.45;;;7.20;99.90;;;;;;5001629;28;20049;-82
2022/11/23 02:39:30;;;;;;;0.70;0.70;;;7.30;99.90;;;;;;5007244;28;20049;-83
2022/11/23 02:41:57;;;;;;;0.55;0.55;;;7.30;99.90;;;;;;5020634;28;20112;-83
2022/11/23 02:45:01;;;;;;;0.63;0.63;;;7.30;99.90;;;;;;4989508;28;20403;-83
2022/11/23 02:47:29;;;;;;;0.40;0.40;;;7.30;99.90;;;;;;5024666;28;20075;-82
2022/11/23 02:50:01;;;;;;;0.50;0.50;;;7.30;99.90;;;;;;5002436;28;20115;-83
2022/11/23 02:52:27;;;;;;;1.00;0.95;;;7.30;99.90;;;;;;5010041;28;20041;-82
2022/11/23 02:54:53;;;;;;;1.20;1.10;;;7.30;99.90;;;;;;5021935;28;20227;-83
2022/11/23 02:57:19;;;;;;;0.50;0.50;;;7.30;99.90;;;;;;5006346;28;20456;-82
2022/11/23 02:59:44;;;;;;;0.63;0.63;;;7.80;99.90;;;;;;4985547;28;20037;-83
2022/11/23 03:02:10;;;;;;;0.70;0.70;;;7.40;99.90;;;;;;5016958;28;20407;-83
2022/11/23 03:04:36;;;;;;;;;;;7.30;99.90;;;;;;5002591;28;20719;-83
2022/11/23 03:07:03;;;;;;;0.60;0.60;;;7.30;99.90;;;;;;5000684;28;21239;-83
2022/11/23 03:09:29;;;;;;;1.02;1.02;;;7.30;99.90;;;;;;5015215;28;20056;-83
2022/11/23 03:11:54;;;;;;;0.80;0.80;;;7.40;99.90;;;;;;4996490;28;20033;-81
2022/11/23 03:14:20;;;;;;;0.93;0.93;;;7.40;99.90;;;;;;4980510;28;21093;-83
2022/11/23 03:16:52;;;;;;;0.88;0.88;;;7.40;99.90;;;;;;5001386;28;20080;-83
2022/11/23 03:19:18;;;;;;;0.50;0.50;;;7.40;99.90;;;;;;4989471;28;20045;-82
2022/11/23 03:21:45;;;;;;;0.50;0.50;;;7.40;99.90;;;;;;4968433;28;20049;-83
2022/11/23 03:24:10;;;;;;;0.60;0.60;;;7.40;99.90;;;;;;5012988;28;20376;-83
2022/11/23 03:26:36;;;;;;;0.50;0.50;;;7.40;99.90;;;;;;4998207;28;20103;-83
2022/11/23 03:29:02;;;;;;;0.50;0.50;;;7.30;99.90;;;;;;4997327;28;20042;-82
2022/11/23 03:31:34;;;;;;;0.57;0.57;;;7.40;99.90;;;;;;4979877;28;20038;-83
2022/11/23 03:33:59;;;;;;;0.60;0.60;;;7.40;99.90;;;;;;5003325;28;20053;-82
2022/11/23 03:36:25;;;;;;;0.57;0.57;;;7.40;99.90;;;;;;4984481;28;20076;-82
2022/11/23 03:38:51;;;;;;;0.65;0.65;;;7.40;99.90;;;;;;4999552;28;20041;-81
2022/11/23 03:41:16;;;;;;;0.45;0.45;;;7.40;99.90;;;;;;5019786;28;20057;-82
2022/11/23 03:43:42;;;;;;;0.85;0.85;;;7.40;99.90;;;;;;4983309;28;20442;-82
2022/11/23 03:46:08;;;;;;;0.50;0.50;;;7.50;99.90;;;;;;4999357;28;20045;-83
2022/11/23 03:48:33;;;;;;;0.60;0.60;;;7.50;99.90;;;;;;5019482;28;20445;-83
2022/11/23 03:51:00;;;;;;;0.52;0.52;;;8.40;99.90;;;;;;4986006;28;20499;-83
2022/11/23 03:53:26;;;;;;;2.13;1.70;;;7.40;99.90;;;;;;4999751;28;20458;-82
2022/11/23 03:55:55;;;;;;;1.27;1.05;;;7.40;99.90;;;;;;5013957;28;20041;-82
2022/11/23 03:58:20;;;;;;;0.60;0.60;;;7.40;99.90;;;;;;4984792;28;20236;-83
2022/11/23 04:00:46;;;;;;;;;;;7.40;99.90;;;;;;4994521;28;20165;-82
2022/11/23 04:03:12;;;;;;;0.60;0.60;;;7.30;99.90;;;;;;4978490;28;20023;-83
2022/11/23 04:05:38;;;;;;;1.48;1.38;;;7.30;99.90;;;;;;4996087;28;20075;-84
2022/11/23 04:08:11;;;;;;;0.50;0.50;;;7.30;99.90;;;;;;4998889;28;20049;-83
2022/11/23 04:10:36;;;;;;;0.40;0.40;;;7.30;99.90;;;;;;4994581;28;20412;-82
2022/11/23 04:13:02;;;;;;;0.57;0.57;;;7.30;99.90;;;;;;5001545;28;20041;-81
2022/11/23 04:15:28;;;;;;;0.50;0.50;;;7.30;99.90;;;;;;5021335;28;20136;-83
2022/11/23 04:17:54;;;;;;;0.50;0.50;;;7.30;99.90;;;;;;4994900;28;20049;-82
2022/11/23 04:20:20;;;;;;;;;;;7.30;99.90;;;;;;5014601;28;21664;-82
2022/11/23 04:22:46;;;;;;;0.50;0.50;;;7.40;99.90;;;;;;4984516;28;19936;-83
2022/11/23 04:25:11;;;;;;;0.60;0.60;;;7.40;99.90;;;;;;5000255;28;20049;-83
2022/11/23 04:27:37;;;;;;;0.75;0.45;;;7.40;99.90;;;;;;4977445;28;20048;-82
2022/11/23 04:30:05;;;;;;;0.93;0.93;;;7.40;99.90;;;;;;4981773;28;20402;-81
2022/11/23 04:32:31;;;;;;;0.70;0.70;;;7.40;99.90;;;;;;5014213;28;20068;-81
2022/11/23 04:34:58;;;;;;;0.45;0.45;;;7.40;99.90;;;;;;4981309;28;20137;-82
2022/11/23 04:37:23;;;;;;;1.85;1.38;;;7.50;99.90;;;;;;4994365;28;20069;-82
2022/11/23 04:39:49;;;;;;;0.40;0.40;;;7.40;99.90;;;;;;4980609;28;20518;-82
2022/11/23 04:42:15;;;;;;;0.63;0.63;;;7.40;99.90;;;;;;4991664;28;20041;-81
2022/11/23 04:44:42;;;;;;;1.55;1.02;;;7.40;99.90;;;;;;4993842;28;20081;-82
2022/11/23 04:47:10;;;;;;;0.60;0.60;;;7.50;99.90;;;;;;5008028;28;20037;-82
2022/11/23 04:49:39;;;;;;;1.85;1.05;;;7.40;99.90;;;;;;4996752;28;20192;-82
2022/11/23 04:52:06;;;;;;;1.13;1.02;;;7.40;99.90;;;;;;5013249;28;20077;-83
2022/11/23 04:54:33;;;;;;;0.55;0.55;;;7.50;99.90;;;;;;4978388;28;20045;-82
2022/11/23 04:56:59;;;;;;;0.75;0.70;;;7.50;99.90;;;;;;4979457;28;20144;-82
2022/11/23 04:59:24;;;;;;;0.68;0.68;;;7.40;99.90;;;;;;4998874;28;20156;-82
2022/11/23 05:01:51;;;;;;;0.43;0.43;;;7.40;99.90;;;;;;4979899;28;20049;-82
2022/11/23 05:04:17;;;;;;;;;;;7.40;99.90;;;;;;4984189;28;20059;-81
2022/11/23 05:06:44;;;;;;;0.80;0.80;;;7.40;99.90;;;;;;5019212;28;19928;-82
2022/11/23 05:09:13;;;;;;;0.88;0.88;;;7.40;99.90;;;;;;5014947;28;20391;-81
2022/11/23 05:11:38;;;;;;;0.80;0.68;;;7.40;99.90;;;;;;4983334;28;20033;-82
2022/11/23 05:14:06;;;;;;;1.00;1.00;;;7.40;99.90;;;;;;4999719;28;20617;-82
2022/11/23 05:16:31;;;;;;;0.70;0.70;;;7.40;99.90;;;;;;4991813;28;20037;-82
2022/11/23 05:18:57;;;;;;;0.60;0.60;;;7.40;99.90;;;;;;5011300;28;20518;-81
2022/11/23 05:21:23;;;;;;;3.75;1.00;;;7.40;99.90;;;;;;4998464;28;20041;-83
2022/11/23 05:23:49;;;;;;;0.60;0.60;;;7.40;99.90;;;;;;5013964;28;20049;-82
2022/11/23 05:26:15;;;;;;;0.60;0.60;;;7.40;99.90;;;;;;5015465;28;20041;-82
2022/11/23 05:28:42;;;;;;;0.65;0.65;;;7.80;99.90;;;;;;5001401;28;20091;-83
2022/11/23 05:31:09;;;;;;;0.85;0.85;;;7.50;99.90;;;;;;4998157;28;20044;-82
2022/11/23 05:33:36;;;;;;;0.57;0.57;;;7.50;99.90;;;;;;4981146;28;20128;-83
2022/11/23 05:36:06;;;;;;;1.38;1.27;;;7.50;99.90;;;;;;5010438;28;20091;-82
2022/11/23 05:38:31;;;;;;;;;;;7.50;99.90;;;;;;5000009;28;20453;-82
2022/11/23 05:40:57;;;;;;;0.65;0.65;;;7.60;99.90;;;;;;4984691;28;19927;-81
2022/11/23 05:43:24;;;;;;;0.98;0.98;;;7.50;99.90;;;;;;4998173;28;20042;-82
2022/11/23 05:45:50;;;;;;;0.40;0.40;;;7.50;99.90;;;;;;4984831;28;20133;-82
2022/11/23 05:48:19;;;;;;;0.43;0.43;;;7.50;99.90;;;;;;5013854;28;20048;-82
2022/11/23 05:50:45;;;;;;;0.95;0.57;;;7.50;99.90;;;;;;5000016;28;20126;-82
2022/11/23 05:53:12;;;;;;;3.85;1.70;;;7.60;99.90;;;;;;4992905;28;20136;-81
2022/11/23 05:55:37;;;;;;;1.10;1.10;;;7.50;99.90;;;;;;5007131;28;20037;-82
2022/11/23 05:58:04;;;;;;;0.43;0.43;;;7.90;99.90;;;;;;4989395;28;20100;-82
2022/11/23 06:00:36;;;;;;;0.47;0.47;;;7.50;99.90;;;;;;4976399;28;20076;-81
2022/11/23 06:03:03;;;;;;;4.47;1.75;;;7.50;99.90;;;;;;4966128;28;20140;-82
2022/11/23 06:05:29;;;;;;;0.70;0.70;;;7.60;99.90;;;;;;5003841;28;20037;-82
2022/11/23 06:07:59;;;;;;;1.02;0.68;;;7.60;99.90;;;;;;5030497;28;20099;-83
2022/11/23 06:10:32;;;;;;;1.42;1.35;;;7.60;99.90;;;;;;4997712;28;20550;-82
2022/11/23 06:13:03;;;;;;;0.73;0.73;;;7.60;99.90;;;;;;4993326;28;20129;-82
2022/11/23 06:15:29;;;;;;;0.50;0.50;;;7.60;99.90;;;;;;5023990;28;20495;-81
2022/11/23 06:18:02;;;;;;;1.13;1.13;;;7.70;99.90;;;;;;5004425;28;20082;-84
2022/11/23 06:20:34;;;;;;;0.50;0.50;;;7.70;99.90;;;;;;4987045;28;20095;-83
2022/11/23 06:22:59;;;;;;;2.25;0.60;;;7.80;99.90;;;;;;4999919;28;20072;-82
2022/11/23 06:25:25;;;;;;;1.67;1.65;;;7.70;99.90;;;;;;4998540;28;20389;-83
2022/11/23 06:27:59;;;;;;;1.05;1.05;;;7.80;99.90;;;;;;5010537;28;20087;-82
2022/11/23 06:30:26;;;;;;;1.35;1.27;;;7.80;99.90;;;;;;5012380;28;20121;-83
2022/11/23 06:32:52;;;;;;;0.50;0.50;;;7.70;99.90;;;;;;4997482;28;20130;-81
2022/11/23 06:35:18;;;;;;;0.80;0.80;;;7.70;99.90;;;;;;5003720;28;20045;-80
2022/11/23 06:37:44;;;;;;;1.05;1.00;;;7.70;99.90;;;;;;4978758;28;21902;-80
2022/11/23 06:40:12;;;;;;;0.50;0.50;;;7.80;99.90;;;;;;5007123;28;20037;-80
2022/11/23 06:42:38;;;;;;;0.50;0.50;;;7.70;99.90;;;;;;4989641;28;20183;-81
2022/11/23 06:45:04;;;;;;;0.50;0.50;;;7.70;99.90;;;;;;4987753;28;20046;-83
2022/11/23 06:47:30;;;;;;;0.45;0.45;;;7.70;99.90;;;;;;4963500;28;20048;-83
2022/11/23 06:49:57;;;;;;;0.90;0.90;;;7.70;99.90;;;;;;4983309;28;20411;-83
2022/11/23 06:52:23;;;;;;;0.77;0.77;;;7.60;99.90;;;;;;5019807;28;20049;-82
2022/11/23 06:54:49;;;;;;;;;;;7.60;99.90;;;;;;5006280;28;20139;-82
2022/11/23 06:57:15;;;;;;;1.00;1.00;;;7.60;99.90;;;;;;5022953;28;19920;-82
2022/11/23 06:59:40;;;;;;;1.40;1.30;;;7.60;99.90;;;;;;5016144;28;20143;-81
2022/11/23 07:02:08;;;;;;;0.85;0.85;;;7.60;99.90;;;;;;5001139;28;20049;-83
2022/11/23 07:04:34;;;;;;;1.75;1.65;;;7.70;99.90;;;;;;5018603;28;20136;-82
2022/11/23 07:07:01;;;;;;;0.60;0.60;;;7.60;99.90;;;;;;5004061;28;20140;-83
2022/11/23 07:09:27;;;;;;;2.00;1.85;;;7.60;99.90;;;;;;4989951;28;20052;-83
2022/11/23 07:11:53;;;;;;;0.98;0.98;;;7.60;99.90;;;;;;4986807;28;20037;-83
2022/11/23 07:14:20;;;;;;;0.50;0.50;;;7.60;99.90;;;;;;5000174;28;20069;-82
2022/11/23 07:16:47;;;;;;;2.60;2.38;;;7.60;99.90;;;;;;4998725;28;20131;-83
2022/11/23 07:19:12;;;;;;;0.65;0.65;;;7.50;99.90;;;;;;5002067;28;20061;-84
2022/11/23 07:21:44;;;;;;;0.45;0.45;;;7.60;99.90;;;;;;4985619;28;20069;-82
2022/11/23 07:24:10;;;;;;;0.57;0.57;;;7.90;99.90;;;;;;5004020;28;20074;-83
2022/11/23 07:26:36;;;;;;;0.73;0.73;;;7.50;99.90;;;;;;4984297;28;20117;-82
2022/11/23 07:29:01;;;;;;;0.50;0.50;;;7.50;99.90;;;;;;4996046;28;20049;-81
2022/11/23 07:31:27;;;;;;;0.60;0.60;;;7.50;99.90;;;;;;4977734;28;20034;-82
2022/11/23 07:33:53;;;;;;;1.58;0.88;;;7.50;99.90;;;;;;4961047;28;20252;-81
2022/11/23 07:36:19;;;;;;;;;;;7.50;99.90;;;;;;4977908;28;20049;-82
2022/11/23 07:38:47;;;;;;;0.47;0.47;;;7.50;99.90;;;;;;4991883;28;19925;-81
2022/11/23 07:41:26;;;;;;;0.50;0.50;;;7.50;99.90;;;;;;4992428;28;20068;-81
2022/11/23 07:43:52;;;;;;;1.05;1.05;;;7.60;99.90;;;;;;4995004;28;20057;-82
2022/11/23 07:46:21;;;;;;;0.50;0.50;;;7.50;99.90;;;;;;4993986;28;20052;-83
2022/11/23 07:48:47;;;;;;;0.70;0.70;;;7.50;99.90;;;;;;4979374;28;20034;-83
2022/11/23 07:51:12;;;;;;;1.40;0.65;;;7.40;99.90;;;;;;4995625;28;20131;-82
2022/11/23 07:53:38;;;;;;;0.45;0.45;;;7.50;99.90;;;;;;4995179;28;20484;-82
2022/11/23 07:56:07;;;;;;;0.50;0.50;;;7.50;99.90;;;;;;4993193;28;20108;-82
2022/11/23 07:58:33;;;;;;;1.65;1.65;;;7.50;99.90;;;;;;4995947;28;20057;-82
2022/11/23 08:00:59;;;;;;;1.85;1.23;;;7.40;99.90;;;;;;4973768;28;20049;-81
2022/11/23 08:03:25;;;;;;;0.82;0.82;;;7.70;99.90;;;;;;4992012;28;20752;-83
2022/11/23 08:05:51;;;;;;;0.50;0.50;;;7.50;99.90;;;;;;4982978;28;20050;-82
2022/11/23 08:08:17;;;;;;;0.55;0.55;;;7.60;99.90;;;;;;5003419;28;20064;-82
2022/11/23 08:10:43;;;;;;;0.73;0.73;;;7.60;99.90;;;;;;5003918;28;20483;-82
2022/11/23 08:13:08;;;;;;;0.80;0.80;;;7.60;99.90;;;;;;4986106;28;20041;-82
2022/11/23 08:15:34;;;;;;;0.85;0.85;;;7.50;99.90;;;;;;4985231;28;20778;-82
2022/11/23 08:18:02;;;;;;;0.75;0.75;;;7.60;99.90;;;;;;5004966;28;20391;-82
2022/11/23 08:20:29;;;;;;;0.63;0.63;;;7.60;99.90;;;;;;5006111;28;20037;-82
2022/11/23 08:22:55;;;;;;;0.50;0.50;;;7.70;99.90;;;;;;4996405;28;20096;-82
2022/11/23 08:25:27;;;;;;;0.50;0.50;;;7.60;99.90;;;;;;4992717;28;20061;-82
2022/11/23 08:27:58;;;;;;;0.63;0.63;;;7.60;99.90;;;;;;4995426;28;20096;-82
2022/11/23 08:30:25;;;;;;;0.82;0.82;;;7.70;99.90;;;;;;4982923;28;20484;-82
2022/11/23 08:32:51;;;;;;;0.43;0.43;;;7.70;99.90;;;;;;5011756;28;20045;-82
2022/11/23 08:35:16;;;;;;;0.63;0.63;;;7.70;99.90;;;;;;5000106;28;20049;-81
2022/11/23 08:37:42;;;;;;;0.60;0.60;;;7.70;99.90;;;;;;5003100;28;20045;-81
2022/11/23 08:40:08;;;;;;;0.88;0.88;;;7.70;99.90;;;;;;4986750;28;20041;-83
2022/11/23 08:42:35;;;;;;;0.55;0.55;;;7.70;99.90;;;;;;5006186;28;20106;-82
2022/11/23 08:45:03;;;;;;;0.60;0.60;;;7.80;99.90;;;;;;4975155;28;20045;-83
2022/11/23 08:47:29;;;;;;;0.60;0.60;;;7.80;99.90;;;;;;5010113;28;20056;-82
2022/11/23 08:49:55;;;;;;;0.45;0.45;;;7.80;99.90;;;;;;5010304;28;20037;-82
2022/11/23 08:52:21;;;;;;;0.45;0.45;;;8.30;99.90;;;;;;4991287;28;20456;-82
2022/11/23 08:54:52;;;;;;;0.50;0.50;;;7.90;99.90;;;;;;5014259;28;20045;-83
2022/11/23 08:57:18;;;;;;;0.55;0.55;;;7.90;99.90;;;;;;4990910;28;20038;-83
2022/11/23 08:59:44;;;;;;;0.82;0.70;;;7.90;99.90;;;;;;4996160;28;20041;-83
2022/11/23 09:02:12;;;;;;;0.40;0.40;;;7.90;99.90;;;;;;4989727;28;20048;-82
2022/11/23 09:04:44;;;;;;;0.70;0.70;;;8.50;99.90;;;;;;4995838;28;20041;-82
2022/11/23 09:07:09;;;;;;;0.60;0.60;;;8.00;99.90;;;;;;4989170;28;20045;-83
2022/11/23 09:09:36;;;;;;;0.60;0.60;;;8.00;99.90;;;;;;5008653;28;20049;-82
2022/11/23 09:12:01;;;;;;;4.82;1.52;;;8.10;99.90;;;;;;4992559;28;20041;-83
2022/11/23 09:14:27;;;;;;;0.43;0.43;;;8.10;99.90;;;;;;5017865;28;20045;-82
2022/11/23 09:16:54;;;;;;;0.50;0.50;;;8.10;99.90;;;;;;4988259;28;20499;-83
2022/11/23 09:19:20;;;;;;;0.63;0.63;;;8.10;99.90;;;;;;5003934;28;20046;-82
2022/11/23 09:21:46;;;;;;;0.50;0.50;;;8.20;99.90;;;;;;4988719;28;20046;-82
2022/11/23 09:24:12;;;;;;;0.60;0.60;;;8.20;99.90;;;;;;4988496;28;20084;-82
2022/11/23 09:26:39;;;;;;;0.50;0.50;;;8.30;99.90;;;;;;5020503;28;20237;-82
2022/11/23 09:29:06;;;;;;;0.60;0.60;;;8.30;99.90;;;;;;5015531;28;20042;-82
2022/11/23 09:31:31;;;;;;;0.63;0.63;;;8.30;99.90;;;;;;5014849;28;20046;-81
2022/11/23 09:33:57;;;;;;;0.60;0.60;;;8.30;99.90;;;;;;4989462;28;20395;-81
2022/11/23 09:36:23;;;;;;;0.90;0.90;;;8.40;99.90;;;;;;4995764;28;20132;-80
2022/11/23 09:38:50;;;;;;;0.60;0.60;;;8.50;99.90;;;;;;5013685;28;20042;-80
2022/11/23 09:41:52;;;;;;;1.10;0.82;;;8.50;99.90;;;;;;4999308;28;20050;-79
2022/11/23 09:44:38;;;;;;;0.52;0.52;;;8.50;99.90;;;;;;5004060;28;20103;-83
2022/11/23 09:47:19;;;;;;;0.75;0.75;;;8.60;99.90;;;;;;5005406;28;20038;-82
2022/11/23 09:50:07;;;;;;;0.50;0.50;;;8.70;99.90;;;;;;5007413;28;20630;-82
2022/11/23 09:52:42;;;;;;;0.32;0.32;;;8.80;99.90;;;;;;5004175;28;20045;-81
2022/11/23 09:55:38;;;;;;;0.50;0.50;;;8.80;99.90;;;;;;4989425;28;20052;-81
2022/11/23 09:58:05;;;;;;;0.40;0.40;;;8.90;99.90;;;;;;4993652;28;20132;-81
2022/11/23 10:00:52;;;;;;;0.50;0.50;;;8.90;99.90;;;;;;4994504;28;20053;-82
2022/11/23 10:03:18;;;;;;;0.60;0.60;;;8.90;99.90;;;;;;4994477;28;20034;-81
2022/11/23 10:05:57;;;;;;;0.40;0.40;;;8.90;99.90;;;;;;4986210;28;20061;-81
2022/11/23 10:08:40;;;;;;;2.10;2.00;;;8.90;99.90;;;;;;4991871;28;20902;-80
2022/11/23 10:11:29;;;;;;;1.02;1.02;;;9.00;99.90;;;;;;4994049;28;20045;-81
2022/11/23 10:14:13;;;;;;;0.52;0.52;;;9.00;99.90;;;;;;4978943;28;20073;-81
2022/11/23 10:17:00;;;;;;;0.50;0.50;;;9.00;99.90;;;;;;4994977;28;20440;-82
2022/11/23 10:19:26;;;;;;;;;;;9.00;99.90;;;;;;4996172;28;20069;-82
2022/11/23 10:21:57;;;;;;;0.55;0.55;;;8.90;99.90;;;;;;4992136;28;19921;-81
2022/11/23 10:24:32;;;;;;;0.60;0.60;;;8.90;99.90;;;;;;4986768;28;20092;-82
2022/11/23 10:26:57;;;;;;;0.52;0.52;;;8.90;99.90;;;;;;5003931;28;20038;-80
2022/11/23 10:29:36;;;;;;;0.63;0.63;;;8.80;99.90;;;;;;4977028;28;20112;-82
2022/11/23 10:32:05;;;;;;;0.85;0.85;;;8.90;99.90;;;;;;4997131;28;20046;-81
2022/11/23 10:34:56;;;;;;;0.85;0.85;;;8.80;99.90;;;;;;4993474;28;20045;-82
2022/11/23 10:37:21;;;;;;;0.60;0.60;;;8.80;99.90;;;;;;5007949;28;20056;-82
2022/11/23 10:39:48;;;;;;;0.60;0.60;;;8.80;99.90;;;;;;4939924;28;20053;-82
2022/11/23 10:42:34;;;;;;;0.68;0.68;;;8.90;99.90;;;;;;4973765;28;20443;-82
2022/11/23 10:45:03;;;;;;;0.50;0.50;;;8.80;99.90;;;;;;4974396;28;20054;-81
2022/11/23 10:47:36;;;;;;;0.50;0.50;;;8.80;99.90;;;;;;4989018;28;20756;-82
2022/11/23 10:50:18;;;;;;;0.50;0.50;;;8.80;99.90;;;;;;4988975;28;20656;-82
2022/11/23 10:52:59;;;;;;;0.80;0.80;;;8.80;99.90;;;;;;4992742;28;20117;-82
2022/11/23 10:55:28;;;;;;;0.40;0.40;;;8.80;99.90;;;;;;4997835;28;20073;-81
2022/11/23 10:57:55;;;;;;;0.57;0.57;;;8.80;99.90;;;;;;5004870;28;20107;-82
2022/11/23 11:00:22;;;;;;;0.57;0.57;;;8.70;99.90;;;;;;5003480;28;20050;-81
2022/11/23 11:02:53;;;;;;;29.33;1.48;;;8.60;99.90;;;;;;5005194;28;20112;-81
2022/11/23 11:05:31;;;;;;;0.77;0.77;;;8.70;99.90;;;;;;5003340;28;20061;-81
2022/11/23 11:08:07;;;;;;;0.60;0.60;;;8.70;99.90;;;;;;4984551;28;20491;-82
2022/11/23 11:10:40;;;;;;;0.50;0.50;;;8.70;99.90;;;;;;4980767;28;20451;-82
2022/11/23 11:13:28;;;;;;;0.63;0.63;;;8.80;99.90;;;;;;4968071;28;20069;-82
2022/11/23 11:15:57;;;;;;;0.82;0.73;;;8.90;99.90;;;;;;4980619;28;20175;-82
2022/11/23 11:18:34;;;;;;;0.73;0.73;;;8.90;99.90;;;;;;4976621;28;20085;-82
2022/11/23 11:21:04;;;;;;;0.35;0.35;;;9.00;99.90;;;;;;4980318;28;20056;-81
2022/11/23 11:23:37;;;;;;;0.50;0.50;;;9.10;99.90;;;;;;4979073;28;20057;-82
2022/11/23 11:26:19;;;;;;;0.50;0.50;;;9.10;99.90;;;;;;4977641;28;20046;-82
2022/11/23 11:28:52;;;;;;;0.40;0.40;;;9.30;99.90;;;;;;4967205;28;20108;-82
2022/11/23 11:31:45;;;;;;;0.40;0.40;;;9.30;99.90;;;;;;4992313;28;20101;-82
2022/11/23 11:34:13;;;;;;;0.50;0.50;;;9.30;99.90;;;;;;4979528;28;20145;-81
2022/11/23 11:36:45;;;;;;;0.50;0.50;;;9.40;99.90;;;;;;4980626;28;20516;-81
2022/11/23 11:39:23;;;;;;;2.88;1.25;;;9.30;99.90;;;;;;5008731;28;20053;-81
2022/11/23 11:41:51;;;;;;;0.55;0.55;;;9.30;99.90;;;;;;4995703;28;20078;-82
2022/11/23 11:44:23;;;;;;;1.08;1.08;;;9.20;99.90;;;;;;5003058;28;20433;-81
2022/11/23 11:46:58;;;;;;;0.80;0.80;;;9.20;99.90;;;;;;4998073;28;20587;-80
2022/11/23 11:49:34;;;;;;;0.32;0.32;;;9.20;99.90;;;;;;4974692;28;20042;-81
2022/11/23 11:52:32;;;;;;;0.60;0.60;;;9.20;99.90;;;;;;4982354;28;20496;-82
2022/11/23 11:55:11;;;;;;;0.50;0.50;;;9.20;99.90;;;;;;4990286;28;20393;-82
2022/11/23 11:57:44;;;;;;;0.47;0.47;;;9.20;99.90;;;;;;5005405;28;20081;-82
2022/11/23 12:00:15;;;;;;;0.55;0.55;;;9.10;99.90;;;;;;4972284;28;20069;-82
2022/11/23 12:02:57;;;;;;;0.98;0.98;;;9.20;99.90;;;;;;4986760;28;20064;-81
2022/11/23 12:05:35;;;;;;;0.40;0.40;;;9.30;99.90;;;;;;4976452;28;20063;-81
2022/11/23 12:08:19;;;;;;;0.35;0.35;;;9.30;99.90;;;;;;4986501;28;20108;-82
2022/11/23 12:10:56;;;;;;;0.68;0.68;;;9.40;99.90;;;;;;4998407;28;20050;-81
2022/11/23 12:13:33;;;;;;;2.05;1.95;;;9.40;99.90;;;;;;5014592;28;20037;-81
2022/11/23 12:16:26;;;;;;;0.50;0.50;;;9.40;99.90;;;;;;4995886;28;20041;-83
2022/11/23 12:19:11;;;;;;;1.63;1.02;;;9.50;99.90;;;;;;4995532;28;20042;-81
2022/11/23 12:22:09;;;;;;;0.60;0.60;;;9.50;99.90;;;;;;5007819;28;21445;-81
2022/11/23 12:25:00;;;;;;;0.45;0.45;;;9.50;99.90;;;;;;4972153;28;20058;-81
2022/11/23 12:27:53;;;;;;;0.50;0.50;;;9.50;99.90;;;;;;4978646;28;20136;-81
2022/11/23 12:31:10;;;;;;;0.40;0.40;;;9.60;99.90;;;;;;4989938;28;20135;-81
2022/11/23 12:33:42;;;;;;;0.60;0.60;;;9.60;99.90;;;;;;4951555;28;20053;-81
2022/11/23 12:36:22;;;;;;;0.40;0.40;;;9.60;99.90;;;;;;4970563;28;20586;-82
2022/11/23 12:39:17;;;;;;;0.50;0.50;;;9.60;99.90;;;;;;4968543;28;20042;-82
2022/11/23 12:42:13;;;;;;;0.60;0.60;;;9.60;99.90;;;;;;4973837;28;20057;-83
2022/11/23 12:45:04;;;;;;;0.90;0.90;;;9.70;99.90;;;;;;4983085;28;20148;-81
2022/11/23 12:47:51;;;;;;;0.40;0.40;;;9.70;99.90;;;;;;4987342;28;20054;-81
2022/11/23 12:51:02;;;;;;;0.40;0.40;;;9.90;99.90;;;;;;5001921;28;20049;-81
2022/11/23 12:54:00;;;;;;;0.40;0.40;;;9.90;99.90;;;;;;4933635;29;20073;-81
2022/11/23 12:57:07;;;;;;;0.65;0.65;;;9.90;99.90;;;;;;4932494;28;20946;-81
2022/11/23 12:59:50;;;;;;;0.40;0.40;;;10.00;99.90;;;;;;4985486;28;20050;-82
2022/11/23 13:02:38;;;;;;;0.40;0.40;;;9.90;99.90;;;;;;4984258;28;20124;-82
2022/11/23 13:05:20;;;;;;;0.77;0.77;;;9.90;99.90;;;;;;4986384;28;20175;-82
2022/11/23 13:08:04;;;;;;;0.70;0.70;;;9.90;99.90;;;;;;4972464;28;20225;-81
2022/11/23 13:11:01;;;;;;;0.50;0.50;;;9.90;99.90;;;;;;4983210;28;20042;-82
2022/11/23 13:13:48;;;;;;;0.88;0.88;;;10.00;99.90;;;;;;4966668;28;20089;-81
2022/11/23 13:16:41;;;;;;;0.30;0.30;;;10.00;99.90;;;;;;4971112;28;20803;-82
2022/11/23 13:19:36;;;;;;;0.45;0.45;;;10.10;99.90;;;;;;4966063;28;20149;-81
2022/11/23 13:22:08;;;;;;;0.40;0.40;;;10.00;99.90;;;;;;4969881;28;20048;-81